Tiempo atmosférico en la estación meteorológica de Barx, València/Valencia (340 m.)



Fecha
DESCASC
Temp. máxima en grados centígrados (hora)
DESCASC
Temp. mínima en grados centígrados (hora)
DESCASC
Temp. media en grados centígrados
DESCASC
Racha de viento máxima en m/sg (hora)
DESCASC
Velocidad máxima media en intervalos de 10 minutos(hora)
DESCASC
Precipitaciones diarias en mm
DESCASC
Precipitaciones de 00:00 a 06:00 en mm
DESCASC
Precipitaciones de 06:00 a 12:00 en mm
DESCASC
Precipitaciones de 12:00 a 18:00 en mm
DESCASC
Precipitaciones de 18:00 a 24:00 en mm
DESCASC
19-02-2019 14.5 (15:50) 4.1 (00:50) 9.3 6.39 (13:00) 3.61 (16:00) 0 0 0 0 0
18-02-2019 14.4 (16:10) 3.3 (05:30) 8.8 8.33 (17:10) 3.61 (17:00) 0 0 0 0 0
17-02-2019 13.9 (15:20) 2.3 (00:00) 8.1 6.11 (15:50) 3.33 (16:20) 0 0 0 0 0
16-02-2019 12.9 (15:10) 2.5 (00:00) 7.7 6.94 (16:20) 3.89 (14:40) 0 0 0 0 0
15-02-2019 14.1 (15:00) 4.3 (00:00) 9.2 6.11 (16:50) 3.61 (17:30) 0 0 0 0 0
14-02-2019 14.3 (14:50) 6.1 (00:00) 10.2 6.94 (17:30) 3.61 (18:00) 0 0 0 0 0
13-02-2019 14.4 (16:00) 3 (00:00) 8.7 6.11 (23:40) 3.61 (17:50) 0 0 0 0 0
12-02-2019 15.8 (14:30) 1.6 (00:00) 8.7 7.78 (18:30) 4.72 (18:30) 0 0 0 0 0
11-02-2019 16.1 (14:20) 5 (00:00) 10.6 10.83 (16:00) 6.39 (15:30) 0 0 0 0 0
10-02-2019 16.7 (13:40) 5.7 (00:00) 11.2 13.33 (16:30) 6.94 (16:30) 0 0 0 0 0
09-02-2019 19.6 (14:40) 5.8 (00:00) 12.7 5.83 (17:20) 3.33 (16:40) 0 0 0 0 0
08-02-2019 18.6 (15:30) 4.4 (00:00) 11.5 4.17 (14:40) 2.5 (14:10) 0 0 0 0 0
07-02-2019 21.3 (15:00) 6.1 (00:00) 13.7 7.5 (18:20) 4.17 (17:40) 0 0 0 0 0
06-02-2019 20.5 (15:30) 4.2 (08:30) 12.3 5 (16:30) 3.06 (17:50) 0 0 0 0 0
05-02-2019 18.3 (16:40) 5 (08:20) 11.6 5 (14:10) 2.78 (14:00) 0 0 0 0 0
04-02-2019 16.3 (15:30) 0.1 (00:00) 8.2 5.56 (10:00) 2.78 (12:50) 0 0 0 0 0
03-02-2019 10.6 (14:00) 4 (00:00) 7.3 20.28 (16:40) 10.56 (16:30) 0 0 0 0 0
02-02-2019 12.9 (14:20) 5.7 (00:00) 9.3 15.28 (14:40) 8.06 (10:30) 0 0 0 0 0
01-02-2019 16.2 (13:40) 8.5 (00:00) 12.4 15.28 (17:30) 7.78 (15:10) 0 0 0 0 0
31-01-2019 18.4 (14:20) 10.9 (00:00) 14.6 14.72 (05:40) 7.5 (15:20) 0 0 0 0 0
30-01-2019 14.4 (14:40) 7.9 (00:00) 11.1 13.06 (02:10) 7.22 (02:10) 0 0 0 0 0
29-01-2019 13.5 (15:10) 6.8 (00:00) 10.2 12.78 (13:10) 6.11 (23:40) 0 0 0 0 0
28-01-2019 15.8 (15:50) 6.2 (00:00) 11 12.78 (12:50) 7.5 (12:50) 0 0 0 0 0
27-01-2019 16.5 (15:20) 10 (00:00) 13.3 14.17 (09:30) 8.06 (11:40) 0 0 0 0 0
26-01-2019 20.1 (15:30) 4.8 (00:00) 12.5 7.78 (23:59) 2.78 (17:30) 0 0 0 0 0
25-01-2019 17.6 (16:20) 7.6 (00:00) 12.6 11.11 (16:00) 5.83 (13:30) 0 0 0 0 0
24-01-2019 13.6 (00:00) 9.2 (00:00) 11.4 16.11 (17:00) 8.61 (17:00) 0 0 0 0 0

Gráficas

Temp. máximas Temp. mínimas Temp. medias Precipitaciones Rachas de viento máximas Velocidades máximas media en intervalos de 10 minutos

Datos horarios

Fecha y hora oficial Temperatura (ºC) Velocidad del viento (km/h) Dirección del viento Racha (km/h) Dirección de racha Precipitación (mm) Presión (hPa) Tendencia (hPa) Humedad (%)
2019-02-22 23:00:00 11.1 0 Calma 8 Sudeste 0 -- -- 42
2019-02-22 22:00:00 13.1 4 Sudeste 9 Sudeste 0 -- -- 34
2019-02-22 21:00:00 11.3 3 Sur 9 Sudeste 0 -- -- 45
2019-02-22 20:00:00 12.7 7 Sudeste 14 Sudeste 0 -- -- 35
2019-02-22 19:00:00 13.8 9 Sur 15 Sur 0 -- -- 41
2019-02-22 18:00:00 17.7 9 Sur 15 Sur 0 -- -- 37
2019-02-22 17:00:00 20.8 9 Sur 15 Sudeste 0 -- -- 35
2019-02-22 16:00:00 21.8 6 Sur 12 Norte 0 -- -- 33
2019-02-22 15:00:00 20.6 5 Nordeste 16 Norte 0 -- -- 22
2019-02-22 14:00:00 20.1 6 Norte 15 Oeste 0 -- -- 31
2019-02-22 13:00:00 19.5 11 Oeste 18 Oeste 0 -- -- 37
2019-02-22 12:00:00 17.2 7 Noroeste 15 Noroeste 0 -- -- 40
2019-02-22 11:00:00 14.8 6 Noroeste 12 Noroeste 0 -- -- 41
2019-02-22 10:00:00 11.6 0 Calma 4 Sur 0 -- -- 56
2019-02-22 09:00:00 4.4 2 Sur 5 Sur 0 -- -- 88
2019-02-22 08:00:00 5.3 5 Sudeste 12 Sur 0 -- -- 74
2019-02-22 07:00:00 5.8 5 Sudeste 12 Sudeste 0 -- -- 79
2019-02-22 06:00:00 3 3 Sudeste 10 Sur 0 -- -- 95
2019-02-22 05:00:00 4.1 3 Sudeste 8 Sudeste 0 -- -- 92
2019-02-22 04:00:00 4.8 2 Sur 9 Sudeste 0 -- -- 86
2019-02-22 03:00:00 4.6 5 Sur 9 Sudeste 0 -- -- 93
2019-02-22 02:00:00 4.5 3 Sudeste 8 Sudeste 0 -- -- 95
2019-02-22 01:00:00 5.6 0 Calma 10 Noroeste 0 -- -- 93
2019-02-22 00:00:00 4.2 0 Calma 6 Nordeste 0 -- -- 93
2019-02-21 23:00:00 5.7 3 Nordeste 9 Noroeste 0 -- -- 95
2019-02-21 22:00:00 5.9 0 Calma 8 Oeste 0 -- -- 90
2019-02-21 21:00:00 7.8 3 Sur 16 Sur 0 -- -- 90
2019-02-21 20:00:00 9.4 11 Sur 19 Sur 0 -- -- 91
2019-02-21 19:00:00 10.3 3 Sur 21 Sur 0 -- -- 82
2019-02-21 18:00:00 12.8 12 Sur 22 Sur 0 -- -- 72
2019-02-21 17:00:00 15 11 Sudeste 21 Sur 0 -- -- 63
2019-02-21 16:00:00 16.1 5 Sudeste 15 Este 0 -- -- 59
2019-02-21 15:00:00 16.1 4 Sudeste 14 Norte 0 -- -- 60
2019-02-21 14:00:00 13.9 9 Norte 15 Norte 0 -- -- 70
2019-02-21 13:00:00 13.5 6 Norte 15 Norte 0 -- -- 70
2019-02-21 12:00:00 13.8 6 Sur 15 Sudeste 0 -- -- 64
2019-02-21 11:00:00 11 5 Nordeste 9 Norte 0 -- -- 80
2019-02-21 10:00:00 8.7 0 Calma 5 Sudeste 0 -- -- 87
2019-02-21 09:00:00 4.2 3 Sudeste 9 Sur 0 -- -- 100
2019-02-21 08:00:00 3.3 4 Sudeste 6 Sudeste 0 -- -- 99
2019-02-21 07:00:00 3.6 4 Sudeste 8 Sur 0 -- -- 97
2019-02-21 06:00:00 3.8 4 Sudeste 8 Sudeste 0 -- -- 97
2019-02-21 05:00:00 4.3 4 Sudeste 10 Sur 0 -- -- 97
2019-02-21 04:00:00 4.5 5 Sudeste 8 Sudeste 0 -- -- 99
2019-02-21 03:00:00 4.3 5 Sur 8 Sudeste 0 -- -- 98
2019-02-21 02:00:00 4.5 4 Sur 6 Sur 0 -- -- 98
2019-02-21 01:00:00 4.7 3 Sudeste 6 Sur 0 -- -- 96
2019-02-21 00:00:00 5 3 Sudeste 6 Sudeste 0 -- -- 93
2019-02-20 23:00:00 6 4 Sudeste 9 Sur 0 -- -- 92
2019-02-20 22:00:00 7 5 Sudeste 18 Sur 0 -- -- 91
2019-02-20 21:00:00 9 11 Sur 21 Sudeste 0 -- -- 90
2019-02-20 20:00:00 9.2 10 Sudeste 20 Sudeste 0 -- -- 85
2019-02-20 19:00:00 9.9 9 Sudeste 19 Sudeste 0 -- -- 83
2019-02-20 18:00:00 11.5 10 Sudeste 20 Sur 0 -- -- 77
2019-02-20 17:00:00 13 12 Sur 20 Sur 0 -- -- 73
2019-02-20 16:00:00 14.5 12 Sur 21 Sur 0 -- -- 66
2019-02-20 15:00:00 13.5 5 Oeste 20 Nordeste 0 -- -- 68
2019-02-20 14:00:00 13.5 8 Norte 22 Norte 0 -- -- 68
2019-02-20 13:00:00 13.7 4 Sudoeste 12 Sur 0 -- -- 64
2019-02-20 12:00:00 11.5 2 Norte 9 Noroeste 0 -- -- 77
2019-02-20 11:00:00 10.4 5 Noroeste 9 Noroeste 0 -- -- 81
2019-02-20 10:00:00 8.6 3 Noroeste 9 Oeste 0 -- -- 91
2019-02-20 09:00:00 5.3 2 Sur 9 Sudeste 0 -- -- 99
2019-02-20 08:00:00 4.5 5 Sudeste 8 Sudeste 0 -- -- 98
2019-02-20 07:00:00 4.6 4 Sudeste 6 Sudeste 0 -- -- 98
2019-02-20 06:00:00 5.7 3 Sudeste 6 Sur 0 -- -- 98
2019-02-20 05:00:00 5.7 0 Calma 4 Sur 0 -- -- 99
2019-02-20 04:00:00 4.9 3 Sudeste 4 Sudeste 0 -- -- 98
2019-02-20 03:00:00 5.7 0 Calma 5 Este 0 -- -- 98
2019-02-20 02:00:00 5 2 Sudeste 5 Sur 0 -- -- 97
2019-02-20 01:00:00 5.6 3 Sudeste 7 Sudeste 0 -- -- 98
2019-02-20 00:00:00 5.3 3 Sudeste 8 Sudeste 0 -- -- 97
2019-02-19 23:00:00 5.4 0 Calma 5 Sur 0 -- -- 93
2019-02-19 22:00:00 6.9 0 Calma 7 Sur 0 -- -- 92
2019-02-19 21:00:00 8.2 5 Sudeste 14 Sudeste 0 -- -- 93
2019-02-19 20:00:00 9.2 6 Sudeste 18 Sudeste 0 -- -- 89
2019-02-19 19:00:00 9.7 8 Sudeste 17 Sudeste 0 -- -- 88
2019-02-19 18:00:00 11.1 9 Sudeste 22 Sur 0 -- -- 79
2019-02-19 17:00:00 13 12 Sur 23 Sur 0 -- -- 71
2019-02-19 16:00:00 14.2 13 Sur 22 Sur 0 -- -- 70
2019-02-19 15:00:00 14 7 Este 19 Este 0 -- -- 67
2019-02-19 14:00:00 12.2 9 Nordeste 21 Norte 0 -- -- 71
2019-02-19 13:00:00 13.5 10 Norte 23 Norte 0 -- -- 66
2019-02-19 12:00:00 11.8 12 Norte 18 Norte 0 -- -- 77
2019-02-19 11:00:00 10.3 7 Norte 12 Norte 0 -- -- 86
2019-02-19 10:00:00 8.9 0 Calma 6 Noroeste 0 -- -- 96
2019-02-19 09:00:00 7.9 2 Noroeste 5 Oeste 0 -- -- 100
2019-02-19 08:00:00 7.4 0 Calma 6 Oeste 0 -- -- 100
2019-02-19 07:00:00 6.8 0 Calma 5 Noroeste 0 -- -- 98
2019-02-19 06:00:00 7.2 0 Calma 4 Oeste 0 -- -- 96
2019-02-19 05:00:00 8 0 Calma 3 Noroeste 0 -- -- 99
2019-02-19 04:00:00 7.5 0 Calma 3 Noroeste 0 -- -- 100
2019-02-19 03:00:00 7.4 0 Calma 4 Este 0 -- -- 100
2019-02-19 02:00:00 5.2 0 Calma 2 Sudeste 0 -- -- 99
2019-02-19 01:00:00 4.1 0 Calma 4 Sur 0 -- -- 97
2019-02-19 00:00:00 4.6 3 Sur 7 Sudeste 0 -- -- 96
2019-02-18 23:00:00 5.8 5 Sudeste 8 Sur 0 -- -- 95
2019-02-18 22:00:00 6.7 2 Sudeste 8 Este 0 -- -- 95
2019-02-18 21:00:00 7.6 0 Calma 11 Este 0 -- -- 90
2019-02-18 20:00:00 8.2 2 Noroeste 6 Sudeste 0 -- -- 89
2019-02-18 19:00:00 9.8 4 Nordeste 20 Nordeste 0 -- -- 87
2019-02-18 18:00:00 11.1 5 Nordeste 30 Sudeste 0 -- -- 84
2019-02-18 17:00:00 13.1 13 Sur 28 Sudeste 0 -- -- 73
2019-02-18 16:00:00 14 5 Sudeste 27 Este 0 -- -- 71
2019-02-18 15:00:00 12.2 7 Nordeste 19 Nordeste 0 -- -- 77
2019-02-18 14:00:00 12.3 9 Nordeste 21 Norte 0 -- -- 77
2019-02-18 13:00:00 11.3 9 Norte 18 Nordeste 0 -- -- 83
2019-02-18 12:00:00 11.2 9 Norte 15 Norte 0 -- -- 85
2019-02-18 11:00:00 9.3 9 Nordeste 13 Nordeste 0 -- -- 94
2019-02-18 10:00:00 8.5 3 Norte 5 Noroeste 0 -- -- 100
2019-02-18 09:00:00 6 0 Calma 3 Sudeste 0 -- -- 100
2019-02-18 08:00:00 5 0 Calma 5 Sur 0 -- -- 100
2019-02-18 07:00:00 4.5 2 Sur 8 Sur 0 -- -- 100
2019-02-18 06:00:00 3.8 3 Sur 6 Sur 0 -- -- 100
2019-02-18 05:00:00 4.2 0 Calma 5 Sur 0 -- -- 99
2019-02-18 04:00:00 3.9 2 Sudeste 6 Sudeste 0 -- -- 98
2019-02-18 03:00:00 3.7 3 Sur 8 Sur 0 -- -- 98
2019-02-18 02:00:00 3.9 0 Calma 5 Sudeste 0 -- -- 95
2019-02-18 01:00:00 5.2 0 Calma 9 Sudeste 0 -- -- 91
2019-02-18 00:00:00 7.2 5 Sudeste 7 Sudeste 0 -- -- 92
2019-02-17 23:00:00 9.1 2 Oeste 10 Sudeste 0 -- -- 88
2019-02-17 22:00:00 10.3 5 Sudeste 14 Este 0 -- -- 85
2019-02-17 21:00:00 10.2 5 Sudeste 10 Sudeste 0 -- -- 86
2019-02-17 20:00:00 10.1 4 Sudeste 10 Sur 0 -- -- 87
2019-02-17 19:00:00 10.3 4 Noroeste 10 Nordeste 0 -- -- 86
2019-02-17 18:00:00 10.8 5 Norte 19 Sur 0 -- -- 85
2019-02-17 17:00:00 12.2 12 Sur 21 Sudeste 0 -- -- 74
2019-02-17 16:00:00 12.3 10 Sur 22 Sudeste 0 -- -- 74
2019-02-17 15:00:00 13.3 8 Sur 20 Sur 0 -- -- 70
2019-02-17 14:00:00 12.7 6 Sur 17 Sur 0 -- -- 70
2019-02-17 13:00:00 12 4 Noroeste 14 Norte 0 -- -- 76
2019-02-17 12:00:00 10.3 8 Norte 13 Norte 0 -- -- 82
2019-02-17 11:00:00 9.3 7 Norte 10 Norte 0 -- -- 86
2019-02-17 10:00:00 7.7 3 Noroeste 8 Oeste 0 -- -- 90
2019-02-17 09:00:00 6.9 0 Calma 4 Noroeste 0 -- -- 96
2019-02-17 08:00:00 6.1 0 Calma 4 Oeste 0 -- -- 98
2019-02-17 07:00:00 6 0 Calma 4 Oeste 0 -- -- 99
2019-02-17 06:00:00 5 0 Calma 5 Sur 0 -- -- 99
2019-02-17 05:00:00 4.1 3 Sudeste 6 Sudeste 0 -- -- 99
2019-02-17 04:00:00 4 4 Sur 7 Sur 0 -- -- 99
2019-02-17 03:00:00 3.2 4 Sudeste 6 Sudeste 0 -- -- 100
2019-02-17 02:00:00 2.7 3 Sudeste 7 Sur 0 -- -- 97
2019-02-17 01:00:00 3 3 Sudeste 5 Sudeste 0 -- -- 99
2019-02-17 00:00:00 2.8 0 Calma 6 Sur 0 -- -- 95
2019-02-16 23:00:00 2.5 3 Sur 6 Sudeste 0 -- -- 92
2019-02-16 22:00:00 4.1 2 Sudeste 5 Sur 0 -- -- 94
2019-02-16 21:00:00 5.7 2 Sudeste 7 Sur 0 -- -- 90
2019-02-16 20:00:00 7.6 4 Sudoeste 21 Sur 0 -- -- 86
2019-02-16 19:00:00 8.9 10 Sur 20 Sudeste 0 -- -- 85
2019-02-16 18:00:00 10.7 10 Sur 18 Sur 0 -- -- 76
2019-02-16 17:00:00 12.2 4 Sur 25 Norte 0 -- -- 68
2019-02-16 16:00:00 12.1 13 Nordeste 23 Norte 0 -- -- 70
2019-02-16 15:00:00 12.6 13 Nordeste 24 Norte 0 -- -- 67
2019-02-16 14:00:00 12.2 9 Norte 24 Norte 0 -- -- 71
2019-02-16 13:00:00 11.6 12 Norte 21 Norte 0 -- -- 73
2019-02-16 12:00:00 11.1 9 Norte 17 Norte 0 -- -- 76
2019-02-16 11:00:00 9.5 8 Norte 14 Norte 0 -- -- 87
2019-02-16 10:00:00 8.6 5 Norte 10 Noroeste 0 -- -- 92
2019-02-16 09:00:00 7.6 4 Norte 9 Norte 0 -- -- 97
2019-02-16 08:00:00 5.9 0 Calma 5 Oeste 0 -- -- 98
2019-02-16 07:00:00 4.4 0 Calma 5 Sudeste 0 -- -- 97
2019-02-16 06:00:00 4.2 0 Calma 5 Sur 0 -- -- 92
2019-02-16 05:00:00 5.6 2 Sur 5 Sudeste 0 -- -- 94
2019-02-16 04:00:00 5.7 0 Calma 4 Sudeste 0 -- -- 94
2019-02-16 03:00:00 6.1 0 Calma 6 Sur 0 -- -- 92
2019-02-16 02:00:00 6.9 4 Sur 6 Sur 0 -- -- 89
2019-02-16 01:00:00 7.8 0 Calma 4 Sudeste 0 -- -- 86
2019-02-16 00:00:00 8.8 0 Calma 5 Sudeste 0 -- -- 84
2019-02-15 23:00:00 9.2 3 Sudeste 8 Este 0 -- -- 82
2019-02-15 22:00:00 9.4 0 Calma 12 Sur 0 -- -- 82
2019-02-15 21:00:00 9.6 3 Sur 8 Sur 0 -- -- 84
2019-02-15 20:00:00 9.6 2 Nordeste 9 Sur 0 -- -- 84
2019-02-15 19:00:00 9.9 3 Sudoeste 14 Sudeste 0 -- -- 84
2019-02-15 18:00:00 10.3 9 Sur 21 Sur 0 -- -- 81
2019-02-15 17:00:00 11.8 11 Sudeste 22 Sur 0 -- -- 73
2019-02-15 16:00:00 13.1 10 Sudeste 18 Sur 0 -- -- 68
2019-02-15 15:00:00 14.1 9 Sur 18 Norte 0 -- -- 65
2019-02-15 14:00:00 11.9 5 Norte 14 Norte 0 -- -- 72
2019-02-15 13:00:00 10.3 8 Norte 13 Norte 0 -- -- 81
2019-02-15 12:00:00 9.8 9 Norte 14 Norte 0 -- -- 83
2019-02-15 11:00:00 9.3 8 Nordeste 12 Nordeste 0 -- -- 85
2019-02-15 10:00:00 8.9 5 Nordeste 12 Norte 0 -- -- 87
2019-02-15 09:00:00 7.8 0 Calma 4 Nordeste 0 -- -- 90
2019-02-15 08:00:00 7.3 0 Calma 6 Sudeste 0 -- -- 91
2019-02-15 07:00:00 6.8 0 Calma 3 Norte 0 -- -- 95
2019-02-15 06:00:00 6.3 0 Calma 2 Sur 0 -- -- 95
2019-02-15 05:00:00 5.9 3 Sur 6 Sudeste 0 -- -- 95
2019-02-15 04:00:00 4.8 4 Sudeste 8 Sur 0 -- -- 96
2019-02-15 03:00:00 4.3 0 Calma 7 Sudeste 0 -- -- 93
2019-02-15 02:00:00 4.6 5 Sudeste 8 Sudeste 0 -- -- 93
2019-02-15 01:00:00 5.4 3 Sudeste 9 Sur 0 -- -- 90
2019-02-15 00:00:00 6.1 5 Sur 8 Sur 0 -- -- 88
2019-02-14 23:00:00 7.9 4 Sur 6 Sur 0 -- -- 82
2019-02-14 22:00:00 9.3 4 Sudeste 10 Sudeste 0 -- -- 79
2019-02-14 21:00:00 9.3 4 Sudeste 16 Sudeste 0 -- -- 79
2019-02-14 20:00:00 9.3 7 Sudeste 15 Sudeste 0 -- -- 80
2019-02-14 19:00:00 9.7 6 Este 24 Sur 0 -- -- 78
2019-02-14 18:00:00 10.8 13 Sur 25 Sur 0 -- -- 76
2019-02-14 17:00:00 12.6 8 Sur 23 Sur 0 -- -- 66
2019-02-14 16:00:00 14 9 Sur 17 Sur 0 -- -- 59
2019-02-14 15:00:00 14.2 5 Este 24 Sur 0 -- -- 56
2019-02-14 14:00:00 13.5 7 Sudeste 18 Norte 0 -- -- 58
2019-02-14 13:00:00 12 9 Norte 22 Sur 0 -- -- 65
2019-02-14 12:00:00 11.6 5 Sur 14 Sur 0 -- -- 67
2019-02-14 11:00:00 11 3 Oeste 18 Sudeste 0 -- -- 68
2019-02-14 10:00:00 9.7 4 Norte 9 Norte 0 -- -- 78
2019-02-14 09:00:00 7.7 2 Sudoeste 5 Este 0 -- -- 89
2019-02-14 08:00:00 6.8 0 Calma 8 Este 0 -- -- 90
2019-02-14 07:00:00 7 0 Calma 4 Oeste 0 -- -- 91
2019-02-14 06:00:00 7.1 0 Calma 4 Sudoeste 0 -- -- 91
2019-02-14 05:00:00 7.3 0 Calma 4 Noroeste 0 -- -- 88
2019-02-14 04:00:00 8.1 2 Oeste 6 Norte 0 -- -- 85
2019-02-14 03:00:00 8.8 3 Noroeste 10 Nordeste 0 -- -- 82
2019-02-14 02:00:00 8.1 0 Calma 8 Oeste 0 -- -- 86
2019-02-14 01:00:00 7.1 2 Nordeste 19 Sudeste 0 -- -- 87
2019-02-14 00:00:00 8 9 Sudeste 22 Sudeste 0 -- -- 84
2019-02-13 23:00:00 3.4 4 Nordeste 18 Sudeste 0 -- -- 96
2019-02-13 22:00:00 4.2 5 Sur 9 Sur 0 -- -- 89
2019-02-13 21:00:00 5.6 3 Sudeste 9 Sur 0 -- -- 84
2019-02-13 20:00:00 7.5 3 Sur 11 Sudeste 0 -- -- 77
2019-02-13 19:00:00 10.5 6 Sudeste 20 Sur 0 -- -- 70
2019-02-13 18:00:00 12.2 12 Sudeste 20 Sur 0 -- -- 68
2019-02-13 17:00:00 14.4 4 Sur 17 Norte 0 -- -- 60
2019-02-13 16:00:00 14.4 5 Norte 19 Norte 0 -- -- 63
2019-02-13 15:00:00 14.1 9 Norte 18 Norte 0 -- -- 65
2019-02-13 14:00:00 13.4 9 Norte 17 Norte 0 -- -- 71
2019-02-13 13:00:00 12.8 10 Norte 18 Norte 0 -- -- 72
2019-02-13 12:00:00 11.9 10 Norte 16 Norte 0 -- -- 73
2019-02-13 11:00:00 10.8 9 Nordeste 14 Nordeste 0 -- -- 62
2019-02-13 10:00:00 9 0 Calma 3 Oeste 0 -- -- 71
2019-02-13 09:00:00 3 0 Calma 9 Sur 0 -- -- 87
2019-02-13 08:00:00 3.8 6 Sudeste 9 Sudeste 0 -- -- 83
2019-02-13 07:00:00 4.1 5 Sudeste 13 Sudeste 0 -- -- 82
2019-02-13 06:00:00 4.2 5 Sudeste 9 Sur 0 -- -- 85
2019-02-13 05:00:00 3.6 4 Sur 8 Sur 0 -- -- 86
2019-02-13 04:00:00 4.8 5 Sur 8 Oeste 0 -- -- 84
2019-02-13 03:00:00 7.3 2 Sur 16 Sudoeste 0 -- -- 77
2019-02-13 02:00:00 7.4 2 Sudoeste 12 Sudeste 0 -- -- 81
2019-02-13 01:00:00 6.9 4 Sur 9 Sur 0 -- -- 87
2019-02-13 00:00:00 5.9 3 Sur 8 Este 0 -- -- 90
2019-02-12 23:00:00 7.1 4 Noroeste 10 Oeste 0 -- -- 90
2019-02-12 22:00:00 7 3 Sur 8 Sur 0 -- -- 88
2019-02-12 21:00:00 7.7 5 Sudeste 14 Sur 0 -- -- 84
2019-02-12 20:00:00 9.1 10 Sur 22 Sudeste 0 -- -- 80
2019-02-12 19:00:00 10 12 Sudeste 28 Sudeste 0 -- -- 76
2019-02-12 18:00:00 11.2 15 Sudeste 26 Sudeste 0 -- -- 72
2019-02-12 17:00:00 13.3 11 Sudeste 24 Sudeste 0 -- -- 60
2019-02-12 16:00:00 14.5 11 Sur 22 Sur 0 -- -- 55
2019-02-12 15:00:00 15.4 11 Sudeste 21 Sudeste 0 -- -- 53
2019-02-12 14:00:00 15.6 5 Sudeste 16 Nordeste 0 -- -- 51
2019-02-12 13:00:00 13 6 Nordeste 13 Nordeste 0 -- -- 61
2019-02-12 12:00:00 12 6 Norte 12 Norte 0 -- -- 63
2019-02-12 11:00:00 10.6 2 Norte 9 Sudoeste 0 -- -- 67
2019-02-12 10:00:00 8.3 6 Oeste 11 Sudoeste 0 -- -- 80
2019-02-12 09:00:00 2.1 0 Calma 7 Sudeste 0 -- -- 98
2019-02-12 08:00:00 1.6 3 Sur 5 Sudeste 0 -- -- 95
2019-02-12 07:00:00 2.8 2 Sudeste 8 Sur 0 -- -- 92
2019-02-12 06:00:00 3.1 3 Sudeste 5 Sudeste 0 -- -- 91
2019-02-12 05:00:00 3.8 2 Sur 7 Sudeste 0 -- -- 87
2019-02-12 04:00:00 4.1 3 Sur 7 Sudeste 0 -- -- 84
2019-02-12 03:00:00 4.2 3 Sudeste 8 Sudeste 0 -- -- 84
2019-02-12 02:00:00 4.5 4 Sudeste 8 Sudeste 0 -- -- 84
2019-02-12 01:00:00 4.6 4 Sur 8 Sudeste 0 -- -- 83
2019-02-12 00:00:00 5 4 Sudeste 9 Sur 0 -- -- 81
2019-02-11 23:00:00 5.6 4 Sudeste 6 Sudeste 0 -- -- 78
2019-02-11 22:00:00 6.3 3 Sur 9 Sur 0 -- -- 77
2019-02-11 21:00:00 8.1 6 Sur 14 Sudeste 0 -- -- 72
2019-02-11 20:00:00 10 9 Sudeste 20 Este 0 -- -- 64
2019-02-11 19:00:00 10.1 11 Sudeste 28 Sur 0 -- -- 75
2019-02-11 18:00:00 11.3 15 Sudeste 30 Sur 0 -- -- 67
2019-02-11 17:00:00 12.7 19 Sudeste 38 Sudeste 0 -- -- 65
2019-02-11 16:00:00 13.2 22 Sur 39 Sur 0 -- -- 62
2019-02-11 15:00:00 14.3 22 Sur 33 Sudeste 0 -- -- 69
2019-02-11 14:00:00 14.9 9 Este 22 Sudeste 0 -- -- 61
2019-02-11 13:00:00 14.7 12 Sur 19 Sur 0 -- -- 64
2019-02-11 12:00:00 16 4 Sudoeste 16 Oeste 0 -- -- 61
2019-02-11 11:00:00 15 8 Oeste 15 Oeste 0 -- -- 67
2019-02-11 10:00:00 13.5 5 Noroeste 14 Oeste 0 -- -- 72
2019-02-11 09:00:00 10.2 0 Calma 6 Norte 0 -- -- 84
2019-02-11 08:00:00 10.8 3 Norte 9 Nordeste 0 -- -- 81
2019-02-11 07:00:00 11.3 5 Norte 17 Noroeste 0 -- -- 79
2019-02-11 06:00:00 11.7 8 Noroeste 21 Noroeste 0 -- -- 76
2019-02-11 05:00:00 12 8 Noroeste 15 Noroeste 0 -- -- 75
2019-02-11 04:00:00 12 12 Noroeste 22 Noroeste 0 -- -- 74
2019-02-11 03:00:00 12.3 10 Norte 18 Noroeste 0 -- -- 72
2019-02-11 02:00:00 12.6 6 Norte 15 Norte 0 -- -- 70
2019-02-11 01:00:00 12.4 5 Nordeste 16 Norte 0 -- -- 68
2019-02-11 00:00:00 12.8 8 Norte 20 Noroeste 0 -- -- 66
2019-02-10 23:00:00 12.3 10 Norte 18 Norte 0 -- -- 67
2019-02-10 22:00:00 12.2 9 Norte 23 Noroeste 0 -- -- 65
2019-02-10 21:00:00 12.9 13 Noroeste 29 Noroeste 0 -- -- 62
2019-02-10 20:00:00 14 14 Noroeste 32 Noroeste 0 -- -- 56
2019-02-10 19:00:00 13.8 10 Norte 23 Oeste 0 -- -- 56
2019-02-10 18:00:00 14.7 14 Noroeste 40 Noroeste 0 -- -- 53
2019-02-10 17:00:00 15 19 Noroeste 48 Noroeste 0 -- -- 51
2019-02-10 16:00:00 16.1 15 Oeste 33 Oeste 0 -- -- 49
2019-02-10 15:00:00 15.2 13 Noroeste 31 Norte 0 -- -- 52
2019-02-10 14:00:00 16.1 14 Noroeste 37 Oeste 0 -- -- 49
2019-02-10 13:00:00 15.5 13 Oeste 37 Noroeste 0 -- -- 51
2019-02-10 12:00:00 14.4 16 Oeste 38 Oeste 0 -- -- 54
2019-02-10 11:00:00 13 10 Oeste 30 Sudoeste 0 -- -- 54
2019-02-10 10:00:00 13.5 8 Oeste 26 Sudoeste 0 -- -- 47
2019-02-10 09:00:00 10.8 11 Sur 22 Sudoeste 0 -- -- 43
2019-02-10 08:00:00 10.1 3 Noroeste 12 Sur 0 -- -- 43
2019-02-10 07:00:00 10.8 5 Sur 16 Sudoeste 0 -- -- 39
2019-02-10 06:00:00 10.6 6 Sur 22 Sudoeste 0 -- -- 50
2019-02-10 05:00:00 10.9 8 Sur 23 Sudoeste 0 -- -- 48
2019-02-10 04:00:00 11 9 Sur 17 Sudoeste 0 -- -- 48
2019-02-10 03:00:00 9.4 4 Sudeste 11 Sur 0 -- -- 63
2019-02-10 02:00:00 7.5 2 Sur 6 Oeste 0 -- -- 81
2019-02-10 01:00:00 6.4 3 Sudeste 7 Sur 0 -- -- 88
2019-02-10 00:00:00 5.8 2 Sur 6 Sur 0 -- -- 90
2019-02-09 23:00:00 6.3 3 Sudeste 6 Sudeste 0 -- -- 91
2019-02-09 22:00:00 6.8 0 Calma 6 Oeste 0 -- -- 85
2019-02-09 21:00:00 9.4 0 Calma 7 Nordeste 0 -- -- 79
2019-02-09 20:00:00 10.5 0 Calma 14 Oeste 0 -- -- 80
2019-02-09 19:00:00 12.4 3 Sudeste 13 Sudeste 0 -- -- 62
2019-02-09 18:00:00 15.4 4 Oeste 21 Sudeste 0 -- -- 56
2019-02-09 17:00:00 17.6 4 Este 20 Sudeste 0 -- -- 50
2019-02-09 16:00:00 19.1 4 Nordeste 15 Norte 0 -- -- 52
2019-02-09 15:00:00 19.2 8 Norte 16 Noroeste 0 -- -- 42
2019-02-09 14:00:00 19.1 10 Norte 16 Norte 0 -- -- 31
2019-02-09 13:00:00 18.7 6 Oeste 16 Sudoeste 0 -- -- 31
2019-02-09 12:00:00 17 6 Noroeste 14 Oeste 0 -- -- 46
2019-02-09 11:00:00 15.3 6 Oeste 13 Noroeste 0 -- -- 47
2019-02-09 10:00:00 13.2 5 Sudeste 13 Sur 0 -- -- 54
2019-02-09 09:00:00 10.2 4 Sudeste 12 Sudeste 0 -- -- 61
2019-02-09 08:00:00 9.9 2 Sudeste 17 Este 0 -- -- 59
2019-02-09 07:00:00 9.8 3 Sudeste 13 Este 0 -- -- 57
2019-02-09 06:00:00 10.6 4 Sudeste 16 Sudoeste 0 -- -- 55
2019-02-09 05:00:00 10.5 5 Sudeste 14 Sudeste 0 -- -- 52
2019-02-09 04:00:00 9.9 3 Sudeste 9 Oeste 0 -- -- 52
2019-02-09 03:00:00 10.7 4 Sudeste 15 Sudoeste 0 -- -- 51
2019-02-09 02:00:00 11.8 6 Sudoeste 15 Sur 0 -- -- 49
2019-02-09 01:00:00 12.2 8 Sudoeste 19 Sur 0 -- -- 52
2019-02-09 00:00:00 11.2 4 Sudeste 12 Sur 0 -- -- 59
2019-02-08 23:00:00 8.5 2 Sudeste 6 Este 0 -- -- 74
2019-02-08 22:00:00 8.4 2 Sudeste 5 Sudeste 0 -- -- 76
2019-02-08 21:00:00 10.8 6 Sudeste 13 Sudeste 0 -- -- 65
2019-02-08 20:00:00 10.2 5 Sudeste 8 Sudeste 0 -- -- 72
2019-02-08 19:00:00 11.2 3 Sudeste 9 Sur 0 -- -- 77
2019-02-08 18:00:00 15.2 3 Sudeste 9 Sur 0 -- -- 65
2019-02-08 17:00:00 17.6 3 Sudoeste 12 Noroeste 0 -- -- 59
2019-02-08 16:00:00 18.3 4 Noroeste 15 Sudeste 0 -- -- 58
2019-02-08 15:00:00 17.8 7 Norte 15 Norte 0 -- -- 60
2019-02-08 14:00:00 17.2 7 Norte 14 Norte 0 -- -- 59
2019-02-08 13:00:00 16.9 4 Norte 11 Norte 0 -- -- 52
2019-02-08 12:00:00 14.8 4 Noroeste 9 Noroeste 0 -- -- 60
2019-02-08 11:00:00 14.1 2 Sur 6 Sudeste 0 -- -- 63
2019-02-08 10:00:00 9.8 0 Calma 4 Sudeste 0 -- -- 89
2019-02-08 09:00:00 4.7 2 Sudeste 4 Sudeste 0 -- -- 99
2019-02-08 08:00:00 4.6 2 Sur 6 Sur 0 -- -- 98
2019-02-08 07:00:00 5.7 4 Sudeste 8 Sudeste 0 -- -- 98
2019-02-08 06:00:00 5.8 0 Calma 5 Sur 0 -- -- 96
2019-02-08 05:00:00 6.2 2 Sudeste 6 Sur 0 -- -- 96
2019-02-08 04:00:00 5.5 4 Sudeste 7 Sudeste 0 -- -- 98
2019-02-08 03:00:00 4.8 0 Calma 5 Norte 0 -- -- 96
2019-02-08 02:00:00 6 2 Nordeste 6 Oeste 0 -- -- 98
2019-02-08 01:00:00 7 2 Norte 6 Sudeste 0 -- -- 98
2019-02-08 00:00:00 6.2 4 Sudeste 8 Sudeste 0 -- -- 90
2019-02-07 23:00:00 6.8 2 Sudeste 6 Sur 0 -- -- 80
2019-02-07 22:00:00 8.7 4 Noroeste 7 Oeste 0 -- -- 74
2019-02-07 21:00:00 10.3 3 Noroeste 8 Noroeste 0 -- -- 66
2019-02-07 20:00:00 12 4 Sudeste 21 Sudeste 0 -- -- 60
2019-02-07 19:00:00 14.4 13 Sudeste 27 Este 0 -- -- 49
2019-02-07 18:00:00 15.9 15 Sudeste 26 Sudeste 0 -- -- 45
2019-02-07 17:00:00 19 11 Sudeste 19 Sudeste 0 -- -- 42
2019-02-07 16:00:00 20.5 3 Norte 21 Noroeste 0 -- -- 37
2019-02-07 15:00:00 21.3 7 Sudoeste 22 Noroeste 0 -- -- 38
2019-02-07 14:00:00 19.6 9 Oeste 18 Noroeste 0 -- -- 40
2019-02-07 13:00:00 18.8 9 Oeste 17 Noroeste 0 -- -- 45
2019-02-07 12:00:00 16.1 8 Noroeste 22 Oeste 0 -- -- 50
2019-02-07 11:00:00 14.9 4 Noroeste 10 Oeste 0 -- -- 53
2019-02-07 10:00:00 13.3 3 Noroeste 13 Este 0 -- -- 58
2019-02-07 09:00:00 12 3 Este 9 Noroeste 0 -- -- 60
2019-02-07 08:00:00 9.5 0 Calma 10 Sudeste 0 -- -- 68
2019-02-07 07:00:00 11.3 5 Sudeste 10 Sudeste 0 -- -- 60
2019-02-07 06:00:00 10.6 3 Oeste 13 Sur 0 -- -- 62
2019-02-07 05:00:00 11 3 Nordeste 14 Sudeste 0 -- -- 61
2019-02-07 04:00:00 12.1 5 Sudeste 17 Sudeste 0 -- -- 57
2019-02-07 03:00:00 12 9 Sudeste 13 Sudeste 0 -- -- 58
2019-02-07 02:00:00 11.7 9 Sudeste 14 Sudeste 0 -- -- 59
2019-02-07 01:00:00 10.7 5 Sudeste 9 Sudeste 0 -- -- 64
2019-02-07 00:00:00 11.4 2 Este 10 Nordeste 0 -- -- 70
2019-02-06 23:00:00 11.8 3 Nordeste 9 Este 0 -- -- 77
2019-02-06 22:00:00 12.3 3 Nordeste 10 Este 0 -- -- 76
2019-02-06 21:00:00 11.2 4 Noroeste 10 Noroeste 0 -- -- 77
2019-02-06 20:00:00 11.6 5 Sudeste 12 Sur 0 -- -- 69
2019-02-06 19:00:00 12.8 3 Sudeste 13 Sur 0 -- -- 66
2019-02-06 18:00:00 14.6 11 Sur 15 Sudeste 0 -- -- 62
2019-02-06 17:00:00 18.7 11 Sur 18 Sudeste 0 -- -- 49
2019-02-06 16:00:00 20 6 Oeste 14 Oeste 0 -- -- 47
2019-02-06 15:00:00 19.7 8 Noroeste 15 Noroeste 0 -- -- 47
2019-02-06 14:00:00 18.9 4 Nordeste 11 Norte 0 -- -- 46
2019-02-06 13:00:00 17.6 4 Nordeste 10 Norte 0 -- -- 49
2019-02-06 12:00:00 16.8 5 Noroeste 8 Noroeste 0 -- -- 51
2019-02-06 11:00:00 14.8 2 Noroeste 6 Oeste 0 -- -- 55
2019-02-06 10:00:00 11.2 2 Sur 6 Oeste 0 -- -- 69
2019-02-06 09:00:00 4.6 0 Calma 6 Norte 0 -- -- 90
2019-02-06 08:00:00 4.5 0 Calma 8 Sur 0 -- -- 88
2019-02-06 07:00:00 4.7 3 Sudeste 6 Sudeste 0 -- -- 89
2019-02-06 06:00:00 5.8 2 Sur 9 Nordeste 0 -- -- 81
2019-02-06 05:00:00 5.4 3 Sur 6 Sudoeste 0 -- -- 86
2019-02-06 04:00:00 6.1 3 Sudeste 8 Sudoeste 0 -- -- 82
2019-02-06 03:00:00 6.5 2 Sudeste 6 Sudeste 0 -- -- 81
2019-02-06 02:00:00 6.7 4 Sudeste 6 Sudeste 0 -- -- 80
2019-02-06 01:00:00 8.4 6 Sudeste 10 Sudeste 0 -- -- 73
2019-02-06 00:00:00 8.2 3 Sudeste 9 Sudeste 0 -- -- 73
2019-02-05 23:00:00 10.1 6 Sudeste 10 Sudeste 0 -- -- 66
2019-02-05 22:00:00 11 8 Sudeste 13 Sudeste 0 -- -- 63
2019-02-05 21:00:00 11.1 9 Sudeste 13 Sudeste 0 -- -- 63
2019-02-05 20:00:00 11.1 8 Sudeste 13 Sudeste 0 -- -- 63
2019-02-05 19:00:00 12 5 Sudeste 10 Sudeste 0 -- -- 64
2019-02-05 18:00:00 13.8 6 Sur 12 Sur 0 -- -- 58
2019-02-05 17:00:00 17.7 7 Sur 15 Sur 0 -- -- 46
2019-02-05 16:00:00 18.1 5 Noroeste 15 Nordeste 0 -- -- 42
2019-02-05 15:00:00 17.6 8 Norte 18 Norte 0 -- -- 44
2019-02-05 14:00:00 17.1 10 Norte 17 Norte 0 -- -- 45
2019-02-05 13:00:00 16.6 9 Oeste 17 Oeste 0 -- -- 45
2019-02-05 12:00:00 14.9 7 Oeste 16 Noroeste 0 -- -- 46
2019-02-05 11:00:00 13.2 8 Oeste 14 Oeste 0 -- -- 49
2019-02-05 10:00:00 11.6 5 Noroeste 12 Oeste 0 -- -- 50
2019-02-05 09:00:00 7.7 6 Sudeste 11 Sudeste 0 -- -- 61
2019-02-05 08:00:00 5.3 2 Nordeste 7 Sudeste 0 -- -- 66
2019-02-05 07:00:00 7.6 7 Sudeste 12 Sudeste 0 -- -- 54
2019-02-05 06:00:00 6.9 5 Sudeste 11 Este 0 -- -- 57
2019-02-05 05:00:00 8 4 Sudeste 8 Nordeste 0 -- -- 51
2019-02-05 04:00:00 8.7 4 Nordeste 9 Nordeste 0 -- -- 47
2019-02-05 03:00:00 7.1 3 Norte 8 Este 0 -- -- 55
2019-02-05 02:00:00 9.7 4 Nordeste 9 Nordeste 0 -- -- 43
2019-02-05 01:00:00 9.9 5 Nordeste 12 Nordeste 0 -- -- 44
2019-02-05 00:00:00 9.6 7 Nordeste 14 Este 0 -- -- 47
2019-02-04 23:00:00 9.4 7 Nordeste 14 Nordeste 0 -- -- 40
2019-02-04 22:00:00 5 2 Oeste 5 Norte 0 -- -- 59
2019-02-04 21:00:00 5.1 2 Sudeste 11 Sudeste 0 -- -- 60
2019-02-04 20:00:00 7.4 5 Sur 14 Sudeste 0 -- -- 46
2019-02-04 19:00:00 9.1 8 Sudeste 13 Sudeste 0 -- -- 45
2019-02-04 18:00:00 11.4 5 Sur 8 Sur 0 -- -- 41
2019-02-04 17:00:00 15.2 3 Sudoeste 12 Sudoeste 0 -- -- 25
2019-02-04 16:00:00 15.6 6 Oeste 11 Oeste 0 -- -- 25
2019-02-04 15:00:00 15.8 3 Sur 10 Noroeste 0 -- -- 24
2019-02-04 14:00:00 14.3 5 Oeste 17 Noroeste 0 -- -- 27
2019-02-04 13:00:00 13.2 9 Oeste 19 Oeste 0 -- -- 29
2019-02-04 12:00:00 10.6 9 Oeste 18 Oeste 0 -- -- 31
2019-02-04 11:00:00 9.5 5 Oeste 17 Oeste 0 -- -- 36
2019-02-04 10:00:00 7 9 Sudoeste 20 Sudoeste 0 -- -- 39
2019-02-04 09:00:00 3.4 3 Sudeste 14 Sur 0 -- -- 50
2019-02-04 08:00:00 1.9 6 Sur 13 Sudoeste 0 -- -- 56
2019-02-04 07:00:00 0.9 2 Este 11 Sur 0 -- -- 63
2019-02-04 06:00:00 1.6 4 Sudeste 12 Sudeste 0 -- -- 59
2019-02-04 05:00:00 2.4 3 Norte 6 Norte 0 -- -- 57
2019-02-04 04:00:00 1.6 2 Norte 6 Noroeste 0 -- -- 62
2019-02-04 03:00:00 0.1 0 Calma 10 Sur 0 -- -- 71
2019-02-04 02:00:00 1.6 0 Calma 6 Norte 0 -- -- 63
2019-02-04 01:00:00 3.6 4 Norte 10 Norte 0 -- -- 55
2019-02-04 00:00:00 4 3 Norte 25 Noroeste 0 -- -- 51
2019-02-03 23:00:00 4.8 7 Noroeste 19 Noroeste 0 -- -- 45
2019-02-03 22:00:00 5.7 10 Noroeste 22 Norte 0 -- -- 42
2019-02-03 21:00:00 6.3 10 Noroeste 28 Norte 0 -- -- 38
2019-02-03 20:00:00 7.4 21 Noroeste 59 Norte 0 -- -- 34
2019-02-03 19:00:00 8 31 Norte 64 Norte 0 -- -- 31
2019-02-03 18:00:00 8.5 28 Noroeste 63 Noroeste 0 -- -- 30
2019-02-03 17:00:00 9.5 33 Noroeste 73 Noroeste 0 -- -- 28
2019-02-03 16:00:00 10.1 34 Noroeste 62 Noroeste 0 -- -- 25
2019-02-03 15:00:00 10.2 33 Norte 55 Norte 0 -- -- 29
2019-02-03 14:00:00 10.6 20 Norte 55 Noroeste 0 -- -- 32
2019-02-03 13:00:00 9.8 24 Noroeste 47 Norte 0 -- -- 32
2019-02-03 12:00:00 8.8 23 Noroeste 40 Noroeste 0 -- -- 36
2019-02-03 11:00:00 7.9 14 Noroeste 35 Noroeste 0 -- -- 38
2019-02-03 10:00:00 6.6 19 Noroeste 55 Norte 0 -- -- 38
2019-02-03 09:00:00 5.6 30 Noroeste 62 Norte 0 -- -- 38
2019-02-03 08:00:00 4.4 19 Noroeste 40 Noroeste 0 -- -- 46
2019-02-03 07:00:00 4.6 18 Noroeste 38 Noroeste 0 -- -- 47
2019-02-03 06:00:00 5 22 Noroeste 39 Noroeste 0 -- -- 47
2019-02-03 05:00:00 4.4 15 Noroeste 31 Noroeste 0 -- -- 56
2019-02-03 04:00:00 4.6 19 Noroeste 36 Norte 0 -- -- 55
2019-02-03 03:00:00 4.9 18 Noroeste 31 Noroeste 0 -- -- 52
2019-02-03 02:00:00 5 17 Noroeste 33 Noroeste 0 -- -- 51
2019-02-03 01:00:00 5.2 15 Noroeste 38 Noroeste 0 -- -- 48
2019-02-03 00:00:00 5.7 18 Noroeste 41 Noroeste 0 -- -- 46
2019-02-02 23:00:00 6.4 23 Noroeste 36 Noroeste 0 -- -- 40
2019-02-02 22:00:00 7 23 Noroeste 38 Noroeste 0 -- -- 36
2019-02-02 21:00:00 7.8 24 Noroeste 48 Noroeste 0 -- -- 32
2019-02-02 20:00:00 8.5 23 Norte 52 Noroeste 0 -- -- 29
2019-02-02 19:00:00 9.2 26 Noroeste 52 Norte 0 -- -- 35
2019-02-02 18:00:00 9.6 19 Noroeste 47 Norte 0 -- -- 35
2019-02-02 17:00:00 10.5 27 Noroeste 52 Norte 0 -- -- 35
2019-02-02 16:00:00 12.2 27 Noroeste 46 Noroeste 0 -- -- 33
2019-02-02 15:00:00 12.2 26 Noroeste 55 Oeste 0 -- -- 36
2019-02-02 14:00:00 12 23 Noroeste 46 Noroeste 0 -- -- 42
2019-02-02 13:00:00 11.5 18 Oeste 42 Noroeste 0 -- -- 45
2019-02-02 12:00:00 10.2 17 Noroeste 41 Noroeste 0 -- -- 48
2019-02-02 11:00:00 8.8 24 Noroeste 54 Oeste 0 -- -- 52
2019-02-02 10:00:00 9.1 25 Noroeste 49 Oeste 0 -- -- 51
2019-02-02 09:00:00 7.5 18 Noroeste 44 Oeste 0 -- -- 57
2019-02-02 08:00:00 7.3 12 Oeste 44 Sudoeste 0 -- -- 58
2019-02-02 07:00:00 7.4 10 Oeste 43 Oeste 0 -- -- 57
2019-02-02 06:00:00 7.6 13 Noroeste 43 Oeste 0 -- -- 57
2019-02-02 05:00:00 8 17 Oeste 48 Oeste 0 -- -- 56
2019-02-02 04:00:00 8.2 21 Noroeste 44 Oeste 0 -- -- 57
2019-02-02 03:00:00 8.7 21 Oeste 50 Oeste 0 -- -- 56
2019-02-02 02:00:00 8.9 10 Oeste 43 Sur 0 -- -- 55
2019-02-02 01:00:00 8.4 15 Sudoeste 46 Sur 0 -- -- 57
2019-02-02 00:00:00 8.7 20 Oeste 42 Oeste 0 -- -- 55
2019-02-01 23:00:00 8.7 17 Noroeste 46 Oeste 0 -- -- 56
2019-02-01 22:00:00 9 19 Oeste 42 Oeste 0 -- -- 58
2019-02-01 21:00:00 10.2 8 Oeste 46 Noroeste 0 -- -- 58
2019-02-01 20:00:00 11.6 21 Noroeste 41 Noroeste 0 -- -- 51
2019-02-01 19:00:00 12 12 Sudoeste 38 Sudoeste 0 -- -- 45
2019-02-01 18:00:00 13 13 Oeste 55 Oeste 0 -- -- 42
2019-02-01 17:00:00 14 14 Oeste 43 Oeste 0 -- -- 40
2019-02-01 16:00:00 14.5 21 Noroeste 52 Noroeste 0 -- -- 38
2019-02-01 15:00:00 14.5 27 Noroeste 54 Oeste 0 -- -- 40
2019-02-01 14:00:00 15.8 17 Oeste 48 Oeste 0 -- -- 42
2019-02-01 13:00:00 15.3 24 Noroeste 54 Oeste 0 -- -- 48
2019-02-01 12:00:00 14.8 13 Oeste 35 Oeste 0 -- -- 61
2019-02-01 11:00:00 14.2 16 Oeste 39 Oeste 0 -- -- 65
2019-02-01 10:00:00 14.5 15 Sudoeste 39 Oeste 0 -- -- 69
2019-02-01 09:00:00 14.2 15 Sur 41 Sudoeste 0 -- -- 67
2019-02-01 08:00:00 14.7 7 Sur 29 Sudoeste 0 -- -- 59
2019-02-01 07:00:00 15 7 Sudeste 27 Este 0 -- -- 56
2019-02-01 06:00:00 15.3 13 Sudeste 36 Sur 0 -- -- 54
2019-02-01 05:00:00 14.9 6 Sur 24 Sur 0 -- -- 55
2019-02-01 04:00:00 14.9 10 Sur 23 Sur 0 -- -- 57
2019-02-01 03:00:00 14.9 5 Sur 19 Sudoeste 0 -- -- 58
2019-02-01 02:00:00 14.8 6 Sudoeste 28 Sudoeste 0 -- -- 58
2019-02-01 01:00:00 14.9 10 Sur 33 Sudoeste 0 -- -- 58
2019-02-01 00:00:00 14.6 11 Sudoeste 36 Sudoeste 0 -- -- 60
2019-01-31 23:00:00 14.6 9 Sudoeste 49 Oeste 0 -- -- 62
2019-01-31 22:00:00 14.9 12 Oeste 35 Sudoeste 0 -- -- 61
2019-01-31 21:00:00 14.9 14 Sur 50 Oeste 0 -- -- 61
2019-01-31 20:00:00 15.2 14 Oeste 42 Sudoeste 0 -- -- 62
2019-01-31 19:00:00 15.6 10 Oeste 35 Oeste 0 -- -- 58
2019-01-31 18:00:00 16.2 17 Noroeste 42 Oeste 0 -- -- 55
2019-01-31 17:00:00 16.9 16 Noroeste 43 Oeste 0 -- -- 56
2019-01-31 16:00:00 16.7 20 Oeste 51 Oeste 0 -- -- 55
2019-01-31 15:00:00 17.4 19 Oeste 49 Oeste 0 -- -- 50
2019-01-31 14:00:00 17.4 22 Noroeste 45 Oeste 0 -- -- 50
2019-01-31 13:00:00 16 17 Noroeste 49 Oeste 0 -- -- 59
2019-01-31 12:00:00 15.1 15 Noroeste 38 Oeste 0 -- -- 64
2019-01-31 11:00:00 14.7 16 Oeste 49 Sudoeste 0 -- -- 65
2019-01-31 10:00:00 14.6 20 Oeste 43 Sudoeste 0 -- -- 65
2019-01-31 09:00:00 13.9 12 Sudoeste 33 Sudoeste 0 -- -- 67
2019-01-31 08:00:00 13.4 18 Sudoeste 46 Sudoeste 0 -- -- 67
2019-01-31 07:00:00 12.9 17 Sudoeste 44 Sudoeste 0 -- -- 67
2019-01-31 06:00:00 12.8 14 Oeste 53 Oeste 0 -- -- 65
2019-01-31 05:00:00 12.6 15 Oeste 40 Oeste 0 -- -- 63
2019-01-31 04:00:00 12.4 17 Oeste 50 Oeste 0 -- -- 62
2019-01-31 03:00:00 12 13 Sudoeste 45 Oeste 0 -- -- 64
2019-01-31 02:00:00 12 10 Sudoeste 32 Sudoeste 0 -- -- 64
2019-01-31 01:00:00 11.5 10 Oeste 40 Oeste 0 -- -- 62
2019-01-31 00:00:00 10.9 9 Noroeste 32 Sudoeste 0 -- -- 61
2019-01-30 23:00:00 11 13 Sudoeste 42 Oeste 0 -- -- 55
2019-01-30 22:00:00 11.3 8 Noroeste 32 Sudoeste 0 -- -- 48
2019-01-30 21:00:00 11.2 8 Oeste 24 Sudoeste 0 -- -- 47
2019-01-30 20:00:00 11.2 8 Oeste 29 Oeste 0 -- -- 47
2019-01-30 19:00:00 11.2 11 Noroeste 27 Noroeste 0 -- -- 45
2019-01-30 18:00:00 12 16 Noroeste 35 Oeste 0 -- -- 39
2019-01-30 17:00:00 13.1 18 Noroeste 35 Oeste 0 -- -- 37
2019-01-30 16:00:00 13.8 15 Oeste 38 Noroeste 0 -- -- 38
2019-01-30 15:00:00 14 19 Noroeste 40 Noroeste 0 -- -- 38
2019-01-30 14:00:00 14.1 19 Noroeste 38 Noroeste 0 -- -- 36
2019-01-30 13:00:00 13.5 19 Noroeste 39 Oeste 0 -- -- 39
2019-01-30 12:00:00 12.6 10 Oeste 25 Oeste 0 -- -- 45
2019-01-30 11:00:00 11.1 9 Oeste 19 Sudoeste 0 -- -- 57
2019-01-30 10:00:00 9.7 9 Oeste 21 Sudoeste 0 -- -- 62
2019-01-30 09:00:00 7.9 3 Noroeste 14 Oeste 0 -- -- 71
2019-01-30 08:00:00 9.2 10 Noroeste 27 Noroeste 0 -- -- 66
2019-01-30 07:00:00 9.8 17 Noroeste 35 Oeste 0 -- -- 64
2019-01-30 06:00:00 10 17 Noroeste 31 Noroeste 0 -- -- 64
2019-01-30 05:00:00 10.6 18 Noroeste 35 Oeste 0 -- -- 63
2019-01-30 04:00:00 10.7 13 Noroeste 31 Oeste 0 -- -- 65
2019-01-30 03:00:00 10.9 16 Noroeste 47 Oeste 0 -- -- 66
2019-01-30 02:00:00 11.4 24 Noroeste 41 Oeste 0 -- -- 65
2019-01-30 01:00:00 11.6 18 Noroeste 35 Oeste 0 -- -- 65
2019-01-30 00:00:00 11.7 14 Noroeste 37 Norte 0 -- -- 66
2019-01-29 23:00:00 12.1 14 Noroeste 40 Oeste 0 -- -- 62
2019-01-29 22:00:00 12.1 18 Noroeste 36 Noroeste 0 -- -- 61
2019-01-29 21:00:00 12.4 12 Oeste 33 Oeste 0 -- -- 58
2019-01-29 20:00:00 12.3 18 Noroeste 36 Oeste 0 -- -- 57
2019-01-29 19:00:00 12.5 13 Oeste 40 Sudoeste 0 -- -- 56
2019-01-29 18:00:00 12.2 14 Noroeste 41 Oeste 0 -- -- 56
2019-01-29 17:00:00 13.1 19 Noroeste 44 Oeste 0 -- -- 53
2019-01-29 16:00:00 13.4 15 Noroeste 32 Oeste 0 -- -- 53
2019-01-29 15:00:00 13.2 18 Noroeste 34 Noroeste 0 -- -- 55
2019-01-29 14:00:00 12.5 13 Noroeste 46 Noroeste 0 -- -- 57
2019-01-29 13:00:00 12.3 21 Oeste 44 Oeste 0 -- -- 54
2019-01-29 12:00:00 12.4 13 Oeste 33 Noroeste 0 -- -- 52
2019-01-29 11:00:00 11 12 Sur 27 Sudoeste 0 -- -- 57
2019-01-29 10:00:00 9.4 8 Noroeste 20 Noroeste 0 -- -- 60
2019-01-29 09:00:00 7.2 9 Noroeste 23 Oeste 0 -- -- 70
2019-01-29 08:00:00 7.1 11 Noroeste 23 Oeste 0 -- -- 67
2019-01-29 07:00:00 7.2 9 Noroeste 21 Oeste 0 -- -- 66
2019-01-29 06:00:00 7.4 10 Noroeste 15 Noroeste 0 -- -- 66
2019-01-29 05:00:00 8.1 5 Norte 17 Noroeste 0 -- -- 65
2019-01-29 04:00:00 8.3 10 Noroeste 19 Noroeste 0 -- -- 65
2019-01-29 03:00:00 9 9 Noroeste 16 Noroeste 0 -- -- 65
2019-01-29 02:00:00 9.2 8 Noroeste 25 Norte 0 -- -- 66
2019-01-29 01:00:00 10.3 11 Noroeste 31 Noroeste 0 -- -- 62
2019-01-29 00:00:00 10.2 5 Noroeste 26 Oeste 0 -- -- 60
2019-01-28 23:00:00 11.8 14 Noroeste 26 Noroeste 0 -- -- 53
2019-01-28 22:00:00 12.5 13 Noroeste 27 Oeste 0 -- -- 50
2019-01-28 21:00:00 13.2 12 Noroeste 28 Noroeste 0 -- -- 48
2019-01-28 20:00:00 13.7 14 Noroeste 28 Oeste 0 -- -- 44
2019-01-28 19:00:00 13.5 11 Noroeste 31 Oeste 0 -- -- 44
2019-01-28 18:00:00 14.6 21 Noroeste 44 Noroeste 0 -- -- 40
2019-01-28 17:00:00 15.5 26 Oeste 44 Oeste 0 -- -- 37
2019-01-28 16:00:00 15.8 19 Noroeste 45 Oeste 0 -- -- 39
2019-01-28 15:00:00 15.1 20 Oeste 42 Oeste 0 -- -- 40
2019-01-28 14:00:00 13.8 20 Oeste 44 Noroeste 0 -- -- 42
2019-01-28 13:00:00 12.6 24 Noroeste 46 Oeste 0 -- -- 44
2019-01-28 12:00:00 12.1 15 Oeste 35 Oeste 0 -- -- 45
2019-01-28 11:00:00 10.1 9 Oeste 43 Oeste 0 -- -- 51
2019-01-28 10:00:00 9 15 Oeste 35 Oeste 0 -- -- 51
2019-01-28 09:00:00 7.1 11 Oeste 26 Noroeste 0 -- -- 56
2019-01-28 08:00:00 6.8 11 Noroeste 23 Oeste 0 -- -- 57
2019-01-28 07:00:00 6.3 10 Noroeste 21 Oeste 0 -- -- 59
2019-01-28 06:00:00 6.5 9 Noroeste 23 Oeste 0 -- -- 57
2019-01-28 05:00:00 7.1 10 Noroeste 18 Oeste 0 -- -- 55
2019-01-28 04:00:00 8 10 Noroeste 20 Noroeste 0 -- -- 52
2019-01-28 03:00:00 9 15 Noroeste 25 Noroeste 0 -- -- 48
2019-01-28 02:00:00 9.4 13 Noroeste 30 Noroeste 0 -- -- 48
2019-01-28 01:00:00 9.9 17 Noroeste 26 Noroeste 0 -- -- 46
2019-01-28 00:00:00 10.6 13 Noroeste 28 Oeste 0 -- -- 42
2019-01-27 23:00:00 11.1 16 Noroeste 31 Oeste 0 -- -- 40
2019-01-27 22:00:00 10.7 13 Noroeste 33 Oeste 0 -- -- 41
2019-01-27 21:00:00 11.3 19 Noroeste 29 Noroeste 0 -- -- 40
2019-01-27 20:00:00 12.4 15 Noroeste 33 Noroeste 0 -- -- 40
2019-01-27 19:00:00 13.2 15 Noroeste 28 Noroeste 0 -- -- 38
2019-01-27 18:00:00 13.9 13 Noroeste 32 Noroeste 0 -- -- 39
2019-01-27 17:00:00 15.5 14 Noroeste 35 Noroeste 0 -- -- 37
2019-01-27 16:00:00 16.3 17 Oeste 41 Noroeste 0 -- -- 39
2019-01-27 15:00:00 15.7 17 Noroeste 37 Oeste 0 -- -- 44
2019-01-27 14:00:00 15 15 Oeste 36 Oeste 0 -- -- 47
2019-01-27 13:00:00 13.1 17 Noroeste 38 Oeste 0 -- -- 54
2019-01-27 12:00:00 14.3 26 Noroeste 47 Oeste 0 -- -- 51
2019-01-27 11:00:00 13.7 20 Noroeste 36 Oeste 0 -- -- 54
2019-01-27 10:00:00 12.6 25 Oeste 51 Noroeste 0 -- -- 55
2019-01-27 09:00:00 11.7 15 Noroeste 34 Oeste 0 -- -- 56
2019-01-27 08:00:00 12.4 6 Oeste 31 Oeste 0 -- -- 52
2019-01-27 07:00:00 12.7 12 Oeste 35 Sudoeste 0 -- -- 48
2019-01-27 06:00:00 12.1 17 Sudoeste 37 Sudoeste 0 -- -- 48
2019-01-27 05:00:00 12.4 6 Sudoeste 33 Sur 0 -- -- 45
2019-01-27 04:00:00 12.7 16 Sur 37 Sudoeste 0 -- -- 46
2019-01-27 03:00:00 13 11 Sudoeste 33 Sudoeste 0 -- -- 44
2019-01-27 02:00:00 12 15 Sur 31 Sur 0 -- -- 45
2019-01-27 01:00:00 12.4 12 Sur 30 Sudoeste 0 -- -- 43
2019-01-27 00:00:00 13.2 9 Oeste 28 Sudoeste 0 -- -- 37
2019-01-26 23:00:00 12.8 3 Noroeste 24 Oeste 0 -- -- 38
2019-01-26 22:00:00 14 6 Norte 20 Oeste 0 -- -- 38
2019-01-26 21:00:00 12.4 4 Oeste 15 Oeste 0 -- -- 45
2019-01-26 20:00:00 14.2 3 Sur 26 Sudoeste 0 -- -- 44
2019-01-26 19:00:00 14.6 6 Sur 22 Sudoeste 0 -- -- 44
2019-01-26 18:00:00 16.4 9 Sur 23 Sudoeste 0 -- -- 40
2019-01-26 17:00:00 18.7 7 Sudoeste 21 Sudoeste 0 -- -- 38
2019-01-26 16:00:00 19.6 9 Sudoeste 17 Sudoeste 0 -- -- 38
2019-01-26 15:00:00 19.2 7 Oeste 17 Oeste 0 -- -- 39
2019-01-26 14:00:00 18 8 Oeste 19 Oeste 0 -- -- 44
2019-01-26 13:00:00 17.2 5 Sur 12 Sudoeste 0 -- -- 46
2019-01-26 12:00:00 14.3 6 Oeste 16 Oeste 0 -- -- 53
2019-01-26 11:00:00 13.2 4 Sudoeste 8 Sudoeste 0 -- -- 55
2019-01-26 10:00:00 9.3 7 Oeste 13 Oeste 0 -- -- 67
2019-01-26 09:00:00 5.1 4 Sudeste 10 Sur 0 -- -- 82
2019-01-26 08:00:00 6.8 4 Sur 11 Sudeste 0 -- -- 73
2019-01-26 07:00:00 7.1 5 Sur 13 Sudoeste 0 -- -- 72
2019-01-26 06:00:00 5 0 Calma 8 Este 0 -- -- 81
2019-01-26 05:00:00 5.5 4 Sudeste 6 Sudoeste 0 -- -- 80
2019-01-26 04:00:00 7.3 2 Este 8 Norte 0 -- -- 72
2019-01-26 03:00:00 9 2 Este 15 Nordeste 0 -- -- 66
2019-01-26 02:00:00 9.8 5 Nordeste 10 Nordeste 0 -- -- 66
2019-01-26 01:00:00 9.5 3 Norte 8 Nordeste 0 -- -- 67
2019-01-26 00:00:00 10.3 3 Norte 10 Norte 0 -- -- 65
2019-01-25 23:00:00 9.5 3 Noroeste 22 Noroeste 0 -- -- 65
2019-01-25 22:00:00 12.9 9 Noroeste 30 Noroeste 0 -- -- 54
2019-01-25 21:00:00 13 10 Noroeste 18 Noroeste 0 -- -- 55
2019-01-25 20:00:00 13.2 9 Noroeste 18 Noroeste 0 -- -- 54
2019-01-25 19:00:00 14.2 10 Noroeste 22 Noroeste 0 -- -- 52
2019-01-25 18:00:00 15 9 Noroeste 35 Noroeste 0 -- -- 50
2019-01-25 17:00:00 16.9 13 Noroeste 32 Norte 0 -- -- 46
2019-01-25 16:00:00 17.4 18 Noroeste 40 Norte 0 -- -- 45
2019-01-25 15:00:00 17.5 18 Noroeste 33 Noroeste 0 -- -- 44
2019-01-25 14:00:00 17.3 17 Noroeste 37 Norte 0 -- -- 45
2019-01-25 13:00:00 16.9 14 Noroeste 31 Norte 0 -- -- 47
2019-01-25 12:00:00 15.6 14 Noroeste 22 Noroeste 0 -- -- 53
2019-01-25 11:00:00 13 9 Oeste 21 Oeste 0 -- -- 62
2019-01-25 10:00:00 11.4 12 Noroeste 22 Noroeste 0 -- -- 67
2019-01-25 09:00:00 8.7 9 Noroeste 15 Norte 0 -- -- 76
2019-01-25 08:00:00 8.6 11 Noroeste 18 Noroeste 0 -- -- 74
2019-01-25 07:00:00 8.3 9 Noroeste 20 Noroeste 0 -- -- 76
2019-01-25 06:00:00 7.9 12 Noroeste 18 Noroeste 0 -- -- 75
2019-01-25 05:00:00 8.5 12 Noroeste 20 Oeste 0 -- -- 72
2019-01-25 04:00:00 8.4 12 Noroeste 21 Noroeste 0 -- -- 68
2019-01-25 03:00:00 8.9 10 Noroeste 26 Noroeste 0 -- -- 66
2019-01-25 02:00:00 8.8 13 Noroeste 20 Oeste 0 -- -- 66
2019-01-25 01:00:00 8.6 9 Noroeste 29 Oeste 0 -- -- 66
2019-01-25 00:00:00 9.8 15 Noroeste 34 Noroeste 0 -- -- 61
2019-01-24 23:00:00 10.6 21 Noroeste 42 Noroeste 0 -- -- 57
2019-01-24 22:00:00 9.4 10 Noroeste 27 Oeste 0 -- -- 62
2019-01-24 21:00:00 9.8 18 Noroeste 27 Oeste 0 -- -- 60
2019-01-24 20:00:00 10.9 16 Noroeste 46 Norte 0 -- -- 54
2019-01-24 19:00:00 11.1 23 Noroeste 45 Noroeste 0 -- -- 53
2019-01-24 18:00:00 11.4 21 Noroeste 48 Norte 0 -- -- 51
2019-01-24 17:00:00 12.1 31 Noroeste 58 Noroeste 0 -- -- 47
2019-01-24 16:00:00 11.8 20 Noroeste 35 Oeste 0 -- -- 47
2019-01-24 15:00:00 11.6 23 Noroeste 40 Noroeste 0 -- -- 46
2019-01-24 14:00:00 11.4 13 Noroeste 35 Noroeste 0 -- -- 50
2019-01-24 13:00:00 11.3 13 Noroeste 26 Oeste 0 -- -- 54
2019-01-24 12:00:00 11.5 9 Noroeste 48 Noroeste 0 -- -- 52
2019-01-24 11:00:00 11.4 24 Noroeste 53 Norte 0 -- -- 47
2019-01-24 10:00:00 10.1 10 Noroeste 26 Noroeste 0 -- -- 62
2019-01-24 09:00:00 10.4 7 Noroeste 26 Noroeste 0 -- -- 63
2019-01-24 08:00:00 10.8 8 Noroeste 26 Noroeste 0 -- -- 62
2019-01-24 07:00:00 11.2 14 Noroeste 37 Noroeste 0 -- -- 64
2019-01-24 06:00:00 11.1 20 Noroeste 36 Noroeste 0 -- -- 63
2019-01-24 05:00:00 11.5 22 Noroeste 45 Oeste 0 -- -- 63
2019-01-24 04:00:00 11.9 24 Noroeste 44 Noroeste 0 -- -- 61
2019-01-24 03:00:00 12.5 25 Noroeste 43 Oeste 0 -- -- 60
2019-01-24 02:00:00 12.8 24 Noroeste 47 Noroeste 0 -- -- 59
2019-01-24 01:00:00 13 28 Noroeste 50 Oeste 0 -- -- 59
2019-01-24 00:00:00 13.6 30 Noroeste 57 Oeste 0 -- -- 57